Yuba City, CA (95991)

5:46 AM PDT on April 25, 2015 (GMT -0700)
plumas lake | | Change Station
CLOSE
Current Station
Personal Weather Station
Location: Plumas Lake, CA
Elevation: 43 ft
Nearby Weather Stations

Elev 43 ft 38.98 °N, 121.55 °W | Updated 14 minutes ago

Overcast
Overcast
50.7 °F
Feels Like 50.7 °F
N
0.0
Wind Variable Wind from ESE

Today
High -- | Low -- °F
--% Chance of Precip.
Yesterday
High -- | Low -- °F
Precip. -- in
6:16 AM 7:53 PM
Waxing Crescent, 45% visible
Pressure 29.86 in
Visibility 10.0 miles
Clouds Overcast 500 ft
Dew Point 50 °F
Humidity 99%
Rainfall 0.83 in
Snow Depth Not available.
UV 0 out of 12
Pollen 8.70 out of 12
Air Quality Not available.
Flu Activity Sporadic
METAR KMYV 251153Z AUTO 25003KT 10SM OVC005 12/11 A2985 RMK AO2 SLP110 60044 70051 T01170106 10117 20106 53004

More Conditions Fewer Conditions

Pressure 29.86 in
Visibility 10.0 miles
Clouds Overcast 500 ft
Dew Point 50 °F
Humidity 99%
Rainfall 0.83 in
Snow Depth Not available.
UV 0 out of 12
Pollen 8.70 out of 12
Air Quality Not available.
Flu Activity Sporadic
METAR KMYV 251153Z AUTO 25003KT 10SM OVC005 12/11 A2985 RMK AO2 SLP110 60044 70051 T01170106 10117 20106 53004

More Conditions Fewer Conditions

10-Day Weather Forecast

Almanac

Astronomy

Apr. 25, 2015 Rise Set
Actual Time
Civil Twilight
Nautical Twilight
Astronomical Twilight
Moon
Length of Visible Light
Length of Day
Tomorrow will be .
, % of the Moon is Illuminated

Today's Extremes

State Highs State Lows

Community

WunderPhotos

Upload Photos

1,816,649 photos uploaded!

WunderBlogs® & News

Nearby

Air Quality

  Air Quality AQ Index Pollutant
Not available.

Snow Depth

Station Depth Elevation

Earthquake Activity

City Distance Mag. Time & Date
Minimum magnitude displayed is 2.5.

Coastal Water Temperatures

Place Temperature

Stations

Nearby Weather Stations

Station Location Temp. Windchill Dew Point Humidity Wind Precip. Elev Updated Type